createdAt,value
2023-05-12T00:00:22.782Z,7.37
2023-05-12T00:05:31.692Z,7.66
2023-05-12T00:10:39.987Z,6.92
2023-05-12T00:15:49.068Z,6.54
2023-05-12T00:20:57.868Z,6.52
2023-05-12T00:26:06.335Z,8.14
2023-05-12T00:31:14.769Z,7.47
2023-05-12T00:36:23.655Z,6.42
2023-05-12T00:41:31.819Z,6.69
2023-05-12T00:46:40.705Z,6.72
2023-05-12T00:51:49.034Z,6.34
2023-05-12T00:56:58.046Z,6.60
2023-05-12T01:02:06.812Z,6.50
2023-05-12T01:07:15.640Z,7.32
2023-05-12T01:12:24.208Z,7.38
2023-05-12T01:17:33.385Z,8.42
2023-05-12T01:22:41.876Z,7.88
2023-05-12T01:27:50.534Z,7.67
2023-05-12T01:32:59.185Z,7.00
2023-05-12T01:38:08.004Z,6.44
2023-05-12T01:43:16.448Z,6.73
2023-05-12T01:48:25.039Z,6.31
2023-05-12T01:53:33.350Z,6.34
2023-05-12T01:58:42.386Z,7.27
2023-05-12T02:03:51.206Z,6.71
2023-05-12T02:08:59.862Z,6.52
2023-05-12T02:14:08.539Z,7.02
2023-05-12T02:19:17.887Z,6.19
2023-05-12T02:24:27.177Z,6.61
2023-05-12T02:29:35.851Z,7.00
2023-05-12T02:34:44.651Z,7.60
2023-05-12T02:39:53.845Z,6.59
2023-05-12T02:45:02.317Z,7.73
2023-05-12T02:50:11.538Z,6.66
2023-05-12T02:55:19.834Z,8.05
2023-05-12T03:00:28.943Z,7.21
2023-05-12T03:05:38.011Z,6.83
2023-05-12T03:10:47.094Z,8.02
2023-05-12T03:15:55.943Z,7.13
2023-05-12T03:21:05.092Z,6.96
2023-05-12T03:26:13.524Z,7.68
2023-05-12T03:31:22.255Z,8.70
2023-05-12T03:36:31.576Z,7.47
2023-05-12T03:41:40.654Z,7.34
2023-05-12T03:46:49.662Z,7.93
2023-05-12T03:51:58.765Z,7.89
2023-05-12T03:57:07.438Z,7.87
2023-05-12T04:02:16.888Z,7.84
2023-05-12T04:07:25.496Z,7.66
2023-05-12T04:12:34.346Z,6.95
2023-05-12T04:17:43.006Z,7.20
2023-05-12T04:22:52.676Z,6.55
2023-05-12T04:28:01.309Z,6.56
2023-05-12T04:33:10.217Z,6.38
2023-05-12T04:38:18.828Z,6.63
2023-05-12T04:48:35.885Z,7.49
2023-05-12T04:53:44.739Z,7.75
2023-05-12T04:58:53.260Z,8.11
2023-05-12T05:04:01.904Z,7.56
2023-05-12T05:09:11.519Z,7.58
2023-05-12T05:14:20.151Z,7.95
2023-05-12T05:19:39.030Z,7.84
2023-05-12T05:24:37.351Z,8.00
2023-05-12T05:29:45.953Z,8.32
2023-05-12T05:34:55.148Z,8.35
2023-05-12T05:40:03.718Z,8.14
2023-05-12T05:45:12.818Z,8.18
2023-05-12T05:50:21.665Z,5.51
2023-05-12T05:55:30.569Z,5.81
2023-05-12T06:00:39.526Z,6.87
2023-05-12T06:10:57.059Z,5.44
2023-05-12T06:21:14.950Z,4.82
2023-05-12T06:26:23.904Z,4.20
2023-05-12T06:31:32.471Z,4.53
2023-05-12T06:36:41.080Z,4.19
2023-05-12T06:41:50.187Z,4.79
2023-05-12T06:46:58.752Z,4.97
2023-05-12T06:52:07.488Z,4.19
2023-05-12T06:57:16.458Z,4.04
2023-05-12T07:02:25.680Z,3.62
2023-05-12T07:07:35.051Z,4.21
2023-05-12T07:12:43.931Z,5.67
2023-05-12T07:17:53.086Z,3.66
2023-05-12T07:23:01.923Z,3.31
2023-05-12T07:28:11.374Z,3.76
2023-05-12T07:33:20.250Z,4.00
2023-05-12T07:38:29.107Z,3.72
2023-05-12T07:43:37.542Z,3.85
2023-05-12T07:48:47.023Z,3.16
2023-05-12T07:53:55.578Z,3.28
2023-05-12T07:59:04.354Z,4.04
2023-05-12T08:04:12.868Z,2.95
2023-05-12T08:09:21.683Z,3.28
2023-05-12T08:14:30.272Z,2.98
2023-05-12T08:19:39.327Z,3.31
2023-05-12T08:24:48.206Z,2.94
2023-05-12T08:29:57.394Z,2.48
2023-05-12T08:35:05.974Z,3.39
2023-05-12T08:40:14.965Z,3.14
2023-05-12T08:45:23.972Z,2.90
2023-05-12T08:50:33.027Z,2.76
2023-05-12T08:55:41.468Z,2.52
2023-05-12T09:00:49.141Z,2.20
2023-05-12T09:05:58.218Z,2.53
2023-05-12T09:11:07.633Z,2.23
2023-05-12T09:16:16.787Z,2.74
2023-05-12T09:21:25.767Z,2.82
2023-05-12T09:26:34.430Z,2.83
2023-05-12T09:31:44.122Z,2.88
2023-05-12T09:36:52.872Z,2.83
2023-05-12T09:42:01.601Z,3.11
2023-05-12T09:47:10.834Z,3.05
2023-05-12T09:52:19.919Z,3.33
2023-05-12T09:57:28.585Z,3.34
2023-05-12T10:02:38.718Z,3.05
2023-05-12T10:07:37.053Z,3.21
2023-05-12T10:12:46.521Z,3.06
2023-05-12T10:17:55.082Z,3.20
2023-05-12T10:23:04.486Z,3.23
2023-05-12T10:28:13.484Z,2.94
2023-05-12T10:33:22.295Z,3.00
2023-05-12T10:38:30.748Z,2.87
2023-05-12T10:43:39.593Z,2.84
2023-05-12T10:48:48.513Z,3.36
2023-05-12T10:53:58.533Z,3.21
2023-05-12T10:58:57.572Z,3.15
2023-05-12T11:04:10.191Z,3.01
2023-05-12T11:09:09.190Z,2.95
2023-05-12T11:14:18.311Z,3.02
2023-05-12T11:19:27.425Z,3.42
2023-05-12T11:24:36.218Z,3.64
2023-05-12T11:29:45.281Z,3.30
2023-05-12T11:34:54.497Z,3.35
2023-05-12T11:40:03.388Z,3.92
2023-05-12T11:45:12.480Z,3.43
2023-05-12T11:50:21.334Z,2.95
2023-05-12T11:55:30.800Z,2.79
2023-05-12T12:00:39.449Z,2.89
2023-05-12T12:05:48.209Z,2.90
2023-05-12T12:11:03.609Z,3.03
2023-05-12T12:16:00.318Z,3.02
2023-05-12T12:21:09.146Z,3.34
2023-05-12T12:26:18.499Z,2.89
2023-05-12T12:31:27.168Z,2.93
2023-05-12T12:36:36.249Z,3.15
2023-05-12T12:41:45.046Z,3.11
2023-05-12T12:46:54.329Z,3.04
2023-05-12T12:52:03.058Z,3.13
2023-05-12T12:57:11.854Z,3.13
2023-05-12T13:02:20.663Z,3.07
2023-05-12T13:07:29.559Z,2.69
2023-05-12T13:12:38.222Z,3.09
2023-05-12T13:17:47.268Z,3.08
2023-05-12T13:22:56.769Z,2.86
2023-05-12T13:28:05.634Z,2.87
2023-05-12T13:33:14.907Z,2.78
2023-05-12T13:38:23.826Z,2.84
2023-05-12T13:43:32.968Z,3.71
2023-05-12T13:48:41.646Z,3.35
2023-05-12T13:53:50.142Z,5.37
2023-05-12T13:58:59.213Z,3.43
2023-05-12T14:04:08.295Z,4.25
2023-05-12T14:09:17.610Z,8.96
2023-05-12T14:14:26.434Z,4.64
2023-05-12T14:19:35.777Z,3.89
2023-05-12T14:24:44.880Z,3.52
2023-05-12T14:29:54.075Z,4.96
2023-05-12T14:35:02.523Z,3.43
2023-05-12T14:40:11.133Z,3.18
2023-05-12T14:45:20.176Z,3.29
2023-05-12T14:50:29.416Z,2.98
2023-05-12T14:55:37.807Z,3.07
2023-05-12T15:00:50.579Z,3.09
2023-05-12T15:10:58.720Z,3.71
2023-05-12T15:16:07.687Z,3.25
2023-05-12T15:21:16.885Z,3.59
2023-05-12T15:26:32.727Z,3.23
2023-05-12T15:31:34.787Z,3.55
2023-05-12T15:36:43.246Z,3.36
2023-05-12T15:41:51.944Z,3.80
2023-05-12T15:47:00.741Z,4.48
2023-05-12T15:52:09.509Z,5.39
2023-05-12T15:57:18.417Z,5.70
2023-05-12T16:02:28.620Z,6.08
2023-05-12T16:07:26.967Z,5.57
2023-05-12T16:12:35.721Z,5.90
2023-05-12T16:17:44.509Z,5.45
2023-05-12T16:22:53.364Z,5.84
2023-05-12T16:28:01.880Z,5.37
2023-05-12T16:33:10.802Z,5.49
2023-05-12T16:38:19.625Z,4.94
2023-05-12T16:43:28.913Z,5.06
2023-05-12T16:48:38.289Z,5.28
2023-05-12T16:53:47.140Z,4.90
2023-05-12T16:58:55.882Z,4.99
2023-05-12T17:04:06.006Z,5.35
2023-05-12T17:09:04.255Z,5.31
2023-05-12T17:14:13.679Z,7.43
2023-05-12T17:19:22.054Z,7.09
2023-05-12T17:24:31.651Z,5.56
2023-05-12T17:29:40.077Z,5.66
2023-05-12T17:34:49.323Z,6.10
2023-05-12T17:39:58.028Z,6.40
2023-05-12T17:45:07.147Z,6.74
2023-05-12T17:50:15.847Z,5.96
2023-05-12T18:05:42.537Z,6.22
2023-05-12T18:10:51.424Z,5.77
2023-05-12T18:16:00.604Z,6.10
2023-05-12T18:21:09.317Z,5.88
2023-05-12T18:26:18.603Z,5.55
2023-05-12T18:31:27.655Z,6.26
2023-05-12T18:36:36.867Z,6.52
2023-05-12T18:41:45.382Z,6.47
2023-05-12T18:46:54.333Z,5.60
2023-05-12T18:52:02.651Z,6.33
2023-05-12T18:57:11.822Z,6.52
2023-05-12T19:02:20.855Z,6.49
2023-05-12T19:07:30.354Z,6.15
2023-05-12T19:12:39.154Z,6.36
2023-05-12T19:17:49.048Z,6.67
2023-05-12T19:22:58.026Z,6.78
2023-05-12T19:28:07.232Z,6.95
2023-05-12T19:33:17.228Z,6.23
2023-05-12T19:38:24.460Z,6.13
2023-05-12T19:43:32.893Z,6.79
2023-05-12T19:48:41.518Z,6.10
2023-05-12T19:53:50.022Z,7.42
2023-05-12T19:58:58.840Z,6.74
2023-05-12T20:04:07.920Z,7.03
2023-05-12T20:09:16.954Z,6.32
2023-05-12T20:14:25.171Z,6.85
2023-05-12T20:19:33.897Z,7.15
2023-05-12T20:24:42.507Z,6.95
2023-05-12T20:29:51.400Z,7.13
2023-05-12T20:35:00.429Z,6.58
2023-05-12T20:40:09.322Z,12.78
2023-05-12T20:45:17.954Z,10.54
2023-05-12T20:50:27.145Z,10.16
2023-05-12T20:55:35.585Z,11.28
2023-05-12T21:00:44.894Z,9.75
2023-05-12T21:05:53.066Z,7.61
2023-05-12T21:11:01.440Z,7.46
2023-05-12T21:16:09.962Z,7.55
2023-05-12T21:21:18.995Z,7.43
2023-05-12T21:26:27.620Z,11.95
2023-05-12T21:31:37.599Z,7.71
2023-05-12T21:36:46.164Z,7.70
2023-05-12T21:41:55.015Z,7.46
2023-05-12T21:47:03.438Z,7.76
2023-05-12T21:52:12.281Z,8.27
2023-05-12T21:57:21.051Z,9.22
2023-05-12T22:02:30.150Z,7.52
2023-05-12T22:07:38.885Z,8.17
2023-05-12T22:12:48.349Z,8.24
2023-05-12T22:17:56.659Z,8.12
2023-05-12T22:23:05.711Z,7.03
2023-05-12T22:28:14.373Z,7.28
2023-05-12T22:33:22.824Z,9.12
2023-05-12T22:38:31.444Z,9.27
2023-05-12T22:43:40.102Z,7.37
2023-05-12T22:48:49.113Z,7.80
2023-05-12T22:53:58.084Z,8.55
2023-05-12T22:59:07.034Z,9.11
2023-05-12T23:04:16.155Z,9.69
2023-05-12T23:09:24.705Z,8.76
2023-05-12T23:14:33.298Z,8.71
2023-05-12T23:19:41.800Z,9.40
2023-05-12T23:24:50.960Z,10.49
2023-05-12T23:29:59.302Z,9.26
2023-05-12T23:35:08.399Z,9.25
2023-05-12T23:40:16.653Z,10.06
2023-05-12T23:45:25.586Z,10.07
2023-05-12T23:50:34.278Z,9.60
2023-05-12T23:55:42.994Z,8.96
